sensor_id;sensor_type;location;lat;lon;timestamp;temperature;humidity
24011;DHT22;12217;50.792;4.372;2023-03-20T00:00:03;10.00;99.90
24011;DHT22;12217;50.792;4.372;2023-03-20T00:02:28;9.80;99.90
24011;DHT22;12217;50.792;4.372;2023-03-20T00:04:54;9.70;99.90
24011;DHT22;12217;50.792;4.372;2023-03-20T00:07:19;9.80;99.90
24011;DHT22;12217;50.792;4.372;2023-03-20T00:09:45;9.70;99.90
24011;DHT22;12217;50.792;4.372;2023-03-20T00:12:19;9.80;99.90
24011;DHT22;12217;50.792;4.372;2023-03-20T00:14:47;9.70;99.90
24011;DHT22;12217;50.792;4.372;2023-03-20T00:17:18;9.70;99.90
24011;DHT22;12217;50.792;4.372;2023-03-20T00:19:45;9.60;99.90
24011;DHT22;12217;50.792;4.372;2023-03-20T00:22:11;9.60;99.90
24011;DHT22;12217;50.792;4.372;2023-03-20T00:24:37;9.60;99.90
24011;DHT22;12217;50.792;4.372;2023-03-20T00:27:03;9.60;99.90
24011;DHT22;12217;50.792;4.372;2023-03-20T00:29:30;9.70;99.90
24011;DHT22;12217;50.792;4.372;2023-03-20T00:31:57;9.70;99.90
24011;DHT22;12217;50.792;4.372;2023-03-20T00:34:26;9.60;99.90
24011;DHT22;12217;50.792;4.372;2023-03-20T00:36:54;9.70;99.90
24011;DHT22;12217;50.792;4.372;2023-03-20T00:39:21;9.60;99.90
24011;DHT22;12217;50.792;4.372;2023-03-20T00:42:00;9.60;99.90
24011;DHT22;12217;50.792;4.372;2023-03-20T00:44:35;9.60;99.90
24011;DHT22;12217;50.792;4.372;2023-03-20T00:47:15;9.60;99.90
24011;DHT22;12217;50.792;4.372;2023-03-20T00:49:41;9.70;99.90
24011;DHT22;12217;50.792;4.372;2023-03-20T00:52:10;9.70;99.90
24011;DHT22;12217;50.792;4.372;2023-03-20T00:54:37;9.70;99.90
24011;DHT22;12217;50.792;4.372;2023-03-20T00:57:15;9.80;99.90
24011;DHT22;12217;50.792;4.372;2023-03-20T00:59:58;9.90;99.90
24011;DHT22;12217;50.792;4.372;2023-03-20T01:02:26;10.00;99.90
24011;DHT22;12217;50.792;4.372;2023-03-20T01:04:53;10.00;99.90
24011;DHT22;12217;50.792;4.372;2023-03-20T01:07:19;9.80;99.90
24011;DHT22;12217;50.792;4.372;2023-03-20T01:09:45;9.70;99.90
24011;DHT22;12217;50.792;4.372;2023-03-20T01:12:12;9.70;99.90
24011;DHT22;12217;50.792;4.372;2023-03-20T01:14:39;9.50;99.90
24011;DHT22;12217;50.792;4.372;2023-03-20T01:17:10;9.20;99.90
24011;DHT22;12217;50.792;4.372;2023-03-20T01:19:41;9.00;99.90
24011;DHT22;12217;50.792;4.372;2023-03-20T01:22:07;8.90;99.90
24011;DHT22;12217;50.792;4.372;2023-03-20T01:24:32;8.80;99.90
24011;DHT22;12217;50.792;4.372;2023-03-20T01:26:58;8.80;99.90
24011;DHT22;12217;50.792;4.372;2023-03-20T01:29:28;8.70;99.90
24011;DHT22;12217;50.792;4.372;2023-03-20T01:31:54;8.80;99.90
24011;DHT22;12217;50.792;4.372;2023-03-20T01:34:21;9.00;99.90
24011;DHT22;12217;50.792;4.372;2023-03-20T01:36:53;9.10;99.90
24011;DHT22;12217;50.792;4.372;2023-03-20T01:39:21;9.10;99.90
24011;DHT22;12217;50.792;4.372;2023-03-20T01:41:50;9.30;99.90
24011;DHT22;12217;50.792;4.372;2023-03-20T01:44:27;9.30;99.90
24011;DHT22;12217;50.792;4.372;2023-03-20T01:46:53;9.10;99.90
24011;DHT22;12217;50.792;4.372;2023-03-20T01:51:46;9.20;99.90
24011;DHT22;12217;50.792;4.372;2023-03-20T01:54:24;9.20;99.90
24011;DHT22;12217;50.792;4.372;2023-03-20T01:56:52;9.10;99.90
24011;DHT22;12217;50.792;4.372;2023-03-20T01:59:29;9.20;99.90
24011;DHT22;12217;50.792;4.372;2023-03-20T02:01:56;9.20;99.90
24011;DHT22;12217;50.792;4.372;2023-03-20T02:04:27;9.20;99.90
24011;DHT22;12217;50.792;4.372;2023-03-20T02:06:53;9.00;99.90
24011;DHT22;12217;50.792;4.372;2023-03-20T02:09:19;9.10;99.90
24011;DHT22;12217;50.792;4.372;2023-03-20T02:11:46;9.00;99.90
24011;DHT22;12217;50.792;4.372;2023-03-20T02:14:12;8.80;99.90
24011;DHT22;12217;50.792;4.372;2023-03-20T02:16:38;8.70;99.90
24011;DHT22;12217;50.792;4.372;2023-03-20T02:19:06;8.60;99.90
24011;DHT22;12217;50.792;4.372;2023-03-20T02:40:05;8.80;99.90
24011;DHT22;12217;50.792;4.372;2023-03-20T02:42:51;9.00;99.90
24011;DHT22;12217;50.792;4.372;2023-03-20T02:45:31;9.10;99.90
24011;DHT22;12217;50.792;4.372;2023-03-20T02:48:15;9.30;99.90
24011;DHT22;12217;50.792;4.372;2023-03-20T02:50:58;9.00;99.90
24011;DHT22;12217;50.792;4.372;2023-03-20T02:53:53;9.20;99.90
24011;DHT22;12217;50.792;4.372;2023-03-20T03:01:55;9.10;99.90
24011;DHT22;12217;50.792;4.372;2023-03-20T03:04:29;9.10;99.90
24011;DHT22;12217;50.792;4.372;2023-03-20T03:06:57;9.00;99.90
24011;DHT22;12217;50.792;4.372;2023-03-20T03:09:30;9.10;99.90
24011;DHT22;12217;50.792;4.372;2023-03-20T03:12:17;9.00;99.90
24011;DHT22;12217;50.792;4.372;2023-03-20T03:14:56;9.10;99.90
24011;DHT22;12217;50.792;4.372;2023-03-20T03:17:26;9.10;99.90
24011;DHT22;12217;50.792;4.372;2023-03-20T03:19:56;9.20;99.90
24011;DHT22;12217;50.792;4.372;2023-03-20T03:22:23;9.20;99.90
24011;DHT22;12217;50.792;4.372;2023-03-20T03:24:51;9.20;99.90
24011;DHT22;12217;50.792;4.372;2023-03-20T03:30:17;9.20;99.90
24011;DHT22;12217;50.792;4.372;2023-03-20T03:33:20;9.30;99.90
24011;DHT22;12217;50.792;4.372;2023-03-20T03:35:47;9.40;99.90
24011;DHT22;12217;50.792;4.372;2023-03-20T03:38:27;9.40;99.90
24011;DHT22;12217;50.792;4.372;2023-03-20T03:43:55;9.20;99.90
24011;DHT22;12217;50.792;4.372;2023-03-20T03:49:15;8.90;99.90
24011;DHT22;12217;50.792;4.372;2023-03-20T03:51:45;8.70;99.90
24011;DHT22;12217;50.792;4.372;2023-03-20T03:54:37;8.80;99.90
24011;DHT22;12217;50.792;4.372;2023-03-20T03:57:06;8.60;99.90
24011;DHT22;12217;50.792;4.372;2023-03-20T03:59:41;8.70;99.90
24011;DHT22;12217;50.792;4.372;2023-03-20T04:02:08;8.80;99.90
24011;DHT22;12217;50.792;4.372;2023-03-20T04:04:38;8.90;99.90
24011;DHT22;12217;50.792;4.372;2023-03-20T04:07:04;8.90;99.90
24011;DHT22;12217;50.792;4.372;2023-03-20T04:09:30;8.90;99.90
24011;DHT22;12217;50.792;4.372;2023-03-20T04:11:56;8.60;99.90
24011;DHT22;12217;50.792;4.372;2023-03-20T04:14:22;8.70;99.90
24011;DHT22;12217;50.792;4.372;2023-03-20T04:16:47;8.70;99.90
24011;DHT22;12217;50.792;4.372;2023-03-20T04:19:13;8.80;99.90
24011;DHT22;12217;50.792;4.372;2023-03-20T04:21:39;8.80;99.90
24011;DHT22;12217;50.792;4.372;2023-03-20T04:24:05;8.80;99.90
24011;DHT22;12217;50.792;4.372;2023-03-20T04:26:31;8.60;99.90
24011;DHT22;12217;50.792;4.372;2023-03-20T04:28:56;8.70;99.90
24011;DHT22;12217;50.792;4.372;2023-03-20T04:31:22;8.70;99.90
24011;DHT22;12217;50.792;4.372;2023-03-20T04:33:48;8.50;99.90
24011;DHT22;12217;50.792;4.372;2023-03-20T04:36:13;8.60;99.90
24011;DHT22;12217;50.792;4.372;2023-03-20T04:38:40;8.40;99.90
24011;DHT22;12217;50.792;4.372;2023-03-20T04:41:06;8.40;99.90
24011;DHT22;12217;50.792;4.372;2023-03-20T04:43:32;8.50;99.90
24011;DHT22;12217;50.792;4.372;2023-03-20T04:45:58;8.40;99.90
24011;DHT22;12217;50.792;4.372;2023-03-20T04:48:23;8.60;99.90
24011;DHT22;12217;50.792;4.372;2023-03-20T04:50:49;8.50;99.90
24011;DHT22;12217;50.792;4.372;2023-03-20T04:53:16;8.50;99.90
24011;DHT22;12217;50.792;4.372;2023-03-20T04:55:45;8.60;99.90
24011;DHT22;12217;50.792;4.372;2023-03-20T04:58:12;8.50;99.90
24011;DHT22;12217;50.792;4.372;2023-03-20T05:00:38;8.60;99.90
24011;DHT22;12217;50.792;4.372;2023-03-20T05:03:03;8.60;99.90
24011;DHT22;12217;50.792;4.372;2023-03-20T05:05:29;8.50;99.90
24011;DHT22;12217;50.792;4.372;2023-03-20T05:07:55;8.50;99.90
24011;DHT22;12217;50.792;4.372;2023-03-20T05:10:20;8.60;99.90
24011;DHT22;12217;50.792;4.372;2023-03-20T05:12:46;8.60;99.90
24011;DHT22;12217;50.792;4.372;2023-03-20T05:15:12;8.50;99.90
24011;DHT22;12217;50.792;4.372;2023-03-20T05:17:38;8.50;99.90
24011;DHT22;12217;50.792;4.372;2023-03-20T05:20:04;8.50;99.90
24011;DHT22;12217;50.792;4.372;2023-03-20T05:22:31;8.40;99.90
24011;DHT22;12217;50.792;4.372;2023-03-20T05:24:56;8.40;99.90
24011;DHT22;12217;50.792;4.372;2023-03-20T05:27:22;8.30;99.90
24011;DHT22;12217;50.792;4.372;2023-03-20T05:29:48;8.20;99.90
24011;DHT22;12217;50.792;4.372;2023-03-20T05:32:13;8.20;99.90
24011;DHT22;12217;50.792;4.372;2023-03-20T05:34:39;8.20;99.90
24011;DHT22;12217;50.792;4.372;2023-03-20T05:37:05;8.30;99.90
24011;DHT22;12217;50.792;4.372;2023-03-20T05:39:30;8.30;99.90
24011;DHT22;12217;50.792;4.372;2023-03-20T05:41:56;8.40;99.90
24011;DHT22;12217;50.792;4.372;2023-03-20T05:44:21;8.30;99.90
24011;DHT22;12217;50.792;4.372;2023-03-20T05:46:47;8.10;99.90
24011;DHT22;12217;50.792;4.372;2023-03-20T05:49:13;8.00;99.90
24011;DHT22;12217;50.792;4.372;2023-03-20T05:51:38;8.10;99.90
24011;DHT22;12217;50.792;4.372;2023-03-20T05:54:04;8.10;99.90
24011;DHT22;12217;50.792;4.372;2023-03-20T05:56:30;8.20;99.90
24011;DHT22;12217;50.792;4.372;2023-03-20T05:58:55;8.30;99.90
24011;DHT22;12217;50.792;4.372;2023-03-20T06:01:21;8.20;99.90
24011;DHT22;12217;50.792;4.372;2023-03-20T06:03:47;8.00;99.90
24011;DHT22;12217;50.792;4.372;2023-03-20T06:06:14;8.00;99.90
24011;DHT22;12217;50.792;4.372;2023-03-20T06:08:41;8.00;99.90
24011;DHT22;12217;50.792;4.372;2023-03-20T06:11:07;7.80;99.90
24011;DHT22;12217;50.792;4.372;2023-03-20T06:13:33;7.60;99.90
24011;DHT22;12217;50.792;4.372;2023-03-20T06:15:58;7.60;99.90
24011;DHT22;12217;50.792;4.372;2023-03-20T06:18:24;7.50;99.90
24011;DHT22;12217;50.792;4.372;2023-03-20T06:20:53;7.40;99.90
24011;DHT22;12217;50.792;4.372;2023-03-20T06:23:20;7.50;99.90
24011;DHT22;12217;50.792;4.372;2023-03-20T06:25:45;7.50;99.90
24011;DHT22;12217;50.792;4.372;2023-03-20T06:28:11;7.50;99.90
24011;DHT22;12217;50.792;4.372;2023-03-20T06:30:37;7.70;99.90
24011;DHT22;12217;50.792;4.372;2023-03-20T06:33:04;7.90;99.90
24011;DHT22;12217;50.792;4.372;2023-03-20T06:35:30;7.80;99.90
24011;DHT22;12217;50.792;4.372;2023-03-20T06:37:57;7.70;99.90
24011;DHT22;12217;50.792;4.372;2023-03-20T06:40:23;7.50;99.90
24011;DHT22;12217;50.792;4.372;2023-03-20T06:42:48;7.40;99.90
24011;DHT22;12217;50.792;4.372;2023-03-20T06:45:14;7.40;99.90
24011;DHT22;12217;50.792;4.372;2023-03-20T06:47:40;7.30;99.90
24011;DHT22;12217;50.792;4.372;2023-03-20T06:50:07;7.40;99.90
24011;DHT22;12217;50.792;4.372;2023-03-20T06:52:33;7.40;99.90
24011;DHT22;12217;50.792;4.372;2023-03-20T06:54:59;7.30;99.90
24011;DHT22;12217;50.792;4.372;2023-03-20T06:57:25;7.20;99.90
24011;DHT22;12217;50.792;4.372;2023-03-20T06:59:51;7.40;99.90
24011;DHT22;12217;50.792;4.372;2023-03-20T07:02:17;7.30;99.90
24011;DHT22;12217;50.792;4.372;2023-03-20T07:04:42;7.30;99.90
24011;DHT22;12217;50.792;4.372;2023-03-20T07:07:08;7.20;99.90
24011;DHT22;12217;50.792;4.372;2023-03-20T07:09:34;7.10;99.90
24011;DHT22;12217;50.792;4.372;2023-03-20T07:12:00;7.10;99.90
24011;DHT22;12217;50.792;4.372;2023-03-20T07:14:26;7.10;99.90
24011;DHT22;12217;50.792;4.372;2023-03-20T07:16:52;7.10;99.90
24011;DHT22;12217;50.792;4.372;2023-03-20T07:19:19;7.10;99.90
24011;DHT22;12217;50.792;4.372;2023-03-20T07:21:44;7.40;99.90
24011;DHT22;12217;50.792;4.372;2023-03-20T07:24:10;7.50;99.90
24011;DHT22;12217;50.792;4.372;2023-03-20T07:26:36;7.50;99.90
24011;DHT22;12217;50.792;4.372;2023-03-20T07:29:02;7.80;99.90
24011;DHT22;12217;50.792;4.372;2023-03-20T07:31:28;7.90;99.90
24011;DHT22;12217;50.792;4.372;2023-03-20T07:33:54;7.90;99.90
24011;DHT22;12217;50.792;4.372;2023-03-20T07:36:20;7.70;99.90
24011;DHT22;12217;50.792;4.372;2023-03-20T07:38:46;7.70;99.90
24011;DHT22;12217;50.792;4.372;2023-03-20T07:41:12;7.60;99.90
24011;DHT22;12217;50.792;4.372;2023-03-20T07:43:37;7.80;99.90
24011;DHT22;12217;50.792;4.372;2023-03-20T07:46:05;8.00;99.90
24011;DHT22;12217;50.792;4.372;2023-03-20T07:48:32;8.10;99.90
24011;DHT22;12217;50.792;4.372;2023-03-20T07:50:57;8.20;99.90
24011;DHT22;12217;50.792;4.372;2023-03-20T07:53:23;8.10;99.90
24011;DHT22;12217;50.792;4.372;2023-03-20T07:55:49;8.30;99.90
24011;DHT22;12217;50.792;4.372;2023-03-20T07:58:14;8.20;99.90
24011;DHT22;12217;50.792;4.372;2023-03-20T08:00:41;8.30;99.90
24011;DHT22;12217;50.792;4.372;2023-03-20T08:03:06;8.20;99.90
24011;DHT22;12217;50.792;4.372;2023-03-20T08:05:32;8.20;99.90
24011;DHT22;12217;50.792;4.372;2023-03-20T08:07:58;8.20;99.90
24011;DHT22;12217;50.792;4.372;2023-03-20T08:10:23;8.10;99.90
24011;DHT22;12217;50.792;4.372;2023-03-20T08:12:50;7.90;99.90
24011;DHT22;12217;50.792;4.372;2023-03-20T08:15:15;7.80;99.90
24011;DHT22;12217;50.792;4.372;2023-03-20T08:17:44;8.00;99.90
24011;DHT22;12217;50.792;4.372;2023-03-20T08:20:11;8.20;99.90
24011;DHT22;12217;50.792;4.372;2023-03-20T08:22:37;8.30;99.90
24011;DHT22;12217;50.792;4.372;2023-03-20T08:25:03;8.20;99.90
24011;DHT22;12217;50.792;4.372;2023-03-20T08:27:29;8.20;99.90
24011;DHT22;12217;50.792;4.372;2023-03-20T08:29:55;8.10;99.90
24011;DHT22;12217;50.792;4.372;2023-03-20T08:32:21;8.00;99.90
24011;DHT22;12217;50.792;4.372;2023-03-20T08:34:46;7.80;99.90
24011;DHT22;12217;50.792;4.372;2023-03-20T08:37:12;7.80;99.90
24011;DHT22;12217;50.792;4.372;2023-03-20T08:39:39;7.90;99.90
24011;DHT22;12217;50.792;4.372;2023-03-20T08:42:05;8.00;99.90
24011;DHT22;12217;50.792;4.372;2023-03-20T08:44:31;8.00;99.90
24011;DHT22;12217;50.792;4.372;2023-03-20T08:46:57;8.20;99.90
24011;DHT22;12217;50.792;4.372;2023-03-20T08:49:23;8.40;99.90
24011;DHT22;12217;50.792;4.372;2023-03-20T08:51:49;8.50;99.90
24011;DHT22;12217;50.792;4.372;2023-03-20T08:54:14;8.50;99.90
24011;DHT22;12217;50.792;4.372;2023-03-20T08:56:43;8.40;99.90
24011;DHT22;12217;50.792;4.372;2023-03-20T08:59:09;8.50;99.90
24011;DHT22;12217;50.792;4.372;2023-03-20T09:01:34;8.70;99.90
24011;DHT22;12217;50.792;4.372;2023-03-20T09:04:00;8.60;99.90
24011;DHT22;12217;50.792;4.372;2023-03-20T09:06:26;8.60;99.90
24011;DHT22;12217;50.792;4.372;2023-03-20T09:08:53;8.50;99.90
24011;DHT22;12217;50.792;4.372;2023-03-20T09:11:19;8.80;99.90
24011;DHT22;12217;50.792;4.372;2023-03-20T09:13:44;8.80;99.90
24011;DHT22;12217;50.792;4.372;2023-03-20T09:16:10;8.70;99.90
24011;DHT22;12217;50.792;4.372;2023-03-20T09:18:36;8.80;99.90
24011;DHT22;12217;50.792;4.372;2023-03-20T09:21:01;9.10;99.90
24011;DHT22;12217;50.792;4.372;2023-03-20T09:23:27;9.30;99.90
24011;DHT22;12217;50.792;4.372;2023-03-20T09:25:53;9.00;99.90
24011;DHT22;12217;50.792;4.372;2023-03-20T09:28:18;8.90;99.90
24011;DHT22;12217;50.792;4.372;2023-03-20T09:30:44;8.70;99.90
24011;DHT22;12217;50.792;4.372;2023-03-20T09:33:10;8.70;99.90
24011;DHT22;12217;50.792;4.372;2023-03-20T09:35:36;8.60;99.90
24011;DHT22;12217;50.792;4.372;2023-03-20T09:38:03;8.70;99.90
24011;DHT22;12217;50.792;4.372;2023-03-20T09:40:59;8.70;99.90
24011;DHT22;12217;50.792;4.372;2023-03-20T09:52:00;8.60;99.90
24011;DHT22;12217;50.792;4.372;2023-03-20T09:54:39;8.70;99.90
24011;DHT22;12217;50.792;4.372;2023-03-20T09:57:05;9.00;99.90
24011;DHT22;12217;50.792;4.372;2023-03-20T09:59:38;9.10;99.90
24011;DHT22;12217;50.792;4.372;2023-03-20T10:02:11;9.30;99.90
24011;DHT22;12217;50.792;4.372;2023-03-20T10:04:39;9.60;99.90
24011;DHT22;12217;50.792;4.372;2023-03-20T10:07:09;9.70;99.90
24011;DHT22;12217;50.792;4.372;2023-03-20T10:09:36;9.60;99.90
24011;DHT22;12217;50.792;4.372;2023-03-20T10:12:45;9.60;99.90
24011;DHT22;12217;50.792;4.372;2023-03-20T10:15:37;9.60;99.90
24011;DHT22;12217;50.792;4.372;2023-03-20T10:18:24;9.80;99.90
24011;DHT22;12217;50.792;4.372;2023-03-20T10:20:58;9.90;99.90
24011;DHT22;12217;50.792;4.372;2023-03-20T10:24:06;9.90;99.90
24011;DHT22;12217;50.792;4.372;2023-03-20T10:26:33;9.90;99.90
24011;DHT22;12217;50.792;4.372;2023-03-20T10:29:18;9.90;99.90
24011;DHT22;12217;50.792;4.372;2023-03-20T10:31:54;10.00;99.90
24011;DHT22;12217;50.792;4.372;2023-03-20T10:42:02;10.40;99.90
24011;DHT22;12217;50.792;4.372;2023-03-20T10:44:39;10.50;99.90
24011;DHT22;12217;50.792;4.372;2023-03-20T10:47:12;10.30;99.90
24011;DHT22;12217;50.792;4.372;2023-03-20T10:49:42;10.40;99.90
24011;DHT22;12217;50.792;4.372;2023-03-20T10:52:17;10.60;99.90
24011;DHT22;12217;50.792;4.372;2023-03-20T10:54:47;10.30;99.90
24011;DHT22;12217;50.792;4.372;2023-03-20T10:57:25;10.30;99.90
24011;DHT22;12217;50.792;4.372;2023-03-20T10:59:55;10.50;99.90
24011;DHT22;12217;50.792;4.372;2023-03-20T11:02:26;10.70;99.90
24011;DHT22;12217;50.792;4.372;2023-03-20T11:04:52;10.60;99.90
24011;DHT22;12217;50.792;4.372;2023-03-20T11:07:30;10.60;99.90
24011;DHT22;12217;50.792;4.372;2023-03-20T11:12:45;10.50;99.90
24011;DHT22;12217;50.792;4.372;2023-03-20T11:17:57;10.90;99.90
24011;DHT22;12217;50.792;4.372;2023-03-20T11:20:24;10.90;99.90
24011;DHT22;12217;50.792;4.372;2023-03-20T11:22:57;10.90;99.90
24011;DHT22;12217;50.792;4.372;2023-03-20T11:25:37;11.00;99.90
24011;DHT22;12217;50.792;4.372;2023-03-20T11:30:49;10.90;99.90
24011;DHT22;12217;50.792;4.372;2023-03-20T11:33:21;10.80;99.90
24011;DHT22;12217;50.792;4.372;2023-03-20T11:35:52;10.70;99.90
24011;DHT22;12217;50.792;4.372;2023-03-20T11:38:20;10.80;99.90
24011;DHT22;12217;50.792;4.372;2023-03-20T11:40:46;11.00;99.90
24011;DHT22;12217;50.792;4.372;2023-03-20T11:43:24;11.20;99.90
24011;DHT22;12217;50.792;4.372;2023-03-20T11:45:58;10.90;99.90
24011;DHT22;12217;50.792;4.372;2023-03-20T11:48:38;11.00;99.90
24011;DHT22;12217;50.792;4.372;2023-03-20T11:51:07;10.90;99.90
24011;DHT22;12217;50.792;4.372;2023-03-20T11:56:24;11.00;99.90
24011;DHT22;12217;50.792;4.372;2023-03-20T12:01:22;11.20;99.90
24011;DHT22;12217;50.792;4.372;2023-03-20T12:04:00;11.30;99.90
24011;DHT22;12217;50.792;4.372;2023-03-20T12:06:38;11.30;99.90
24011;DHT22;12217;50.792;4.372;2023-03-20T12:12:15;11.50;99.90
24011;DHT22;12217;50.792;4.372;2023-03-20T12:15:09;11.60;99.90
24011;DHT22;12217;50.792;4.372;2023-03-20T12:17:58;12.20;99.90
24011;DHT22;12217;50.792;4.372;2023-03-20T12:20:41;12.30;99.90
24011;DHT22;12217;50.792;4.372;2023-03-20T12:25:53;11.90;99.90
24011;DHT22;12217;50.792;4.372;2023-03-20T12:36:13;12.20;99.90
24011;DHT22;12217;50.792;4.372;2023-03-20T12:38:40;12.60;99.90
24011;DHT22;12217;50.792;4.372;2023-03-20T12:41:28;12.70;99.90
24011;DHT22;12217;50.792;4.372;2023-03-20T12:46:49;12.40;99.90
24011;DHT22;12217;50.792;4.372;2023-03-20T12:49:28;12.80;99.90
24011;DHT22;12217;50.792;4.372;2023-03-20T13:00:13;13.00;99.90
24011;DHT22;12217;50.792;4.372;2023-03-20T13:05:56;13.70;99.90
24011;DHT22;12217;50.792;4.372;2023-03-20T13:14:05;12.60;99.90
24011;DHT22;12217;50.792;4.372;2023-03-20T13:16:51;12.50;99.90
24011;DHT22;12217;50.792;4.372;2023-03-20T13:22:12;11.90;99.90
24011;DHT22;12217;50.792;4.372;2023-03-20T13:32:56;12.00;99.90
24011;DHT22;12217;50.792;4.372;2023-03-20T13:35:41;12.00;99.90
24011;DHT22;12217;50.792;4.372;2023-03-20T13:38:17;11.90;99.90
24011;DHT22;12217;50.792;4.372;2023-03-20T13:40:45;11.90;99.90
24011;DHT22;12217;50.792;4.372;2023-03-20T13:43:55;11.80;99.90
24011;DHT22;12217;50.792;4.372;2023-03-20T13:46:34;11.90;99.90
24011;DHT22;12217;50.792;4.372;2023-03-20T13:49:07;12.10;99.90
24011;DHT22;12217;50.792;4.372;2023-03-20T13:51:46;12.10;99.90
24011;DHT22;12217;50.792;4.372;2023-03-20T13:59:34;12.10;99.90
24011;DHT22;12217;50.792;4.372;2023-03-20T14:02:18;11.80;99.90
24011;DHT22;12217;50.792;4.372;2023-03-20T14:04:51;11.80;99.90
24011;DHT22;12217;50.792;4.372;2023-03-20T14:07:41;11.70;99.90
24011;DHT22;12217;50.792;4.372;2023-03-20T14:12:53;11.90;99.90
24011;DHT22;12217;50.792;4.372;2023-03-20T14:15:21;11.90;99.90
24011;DHT22;12217;50.792;4.372;2023-03-20T14:17:48;11.70;99.90
24011;DHT22;12217;50.792;4.372;2023-03-20T14:20:37;11.50;99.90
24011;DHT22;12217;50.792;4.372;2023-03-20T14:23:04;11.40;99.90
24011;DHT22;12217;50.792;4.372;2023-03-20T14:25:36;11.50;99.90
24011;DHT22;12217;50.792;4.372;2023-03-20T14:30:42;11.70;99.90
24011;DHT22;12217;50.792;4.372;2023-03-20T14:35:48;11.70;99.90
24011;DHT22;12217;50.792;4.372;2023-03-20T14:43:44;11.80;99.90
24011;DHT22;12217;50.792;4.372;2023-03-20T14:49:14;11.70;99.90
24011;DHT22;12217;50.792;4.372;2023-03-20T14:51:46;11.70;99.90
24011;DHT22;12217;50.792;4.372;2023-03-20T14:56:51;11.70;99.90
24011;DHT22;12217;50.792;4.372;2023-03-20T14:59:19;11.60;99.90
24011;DHT22;12217;50.792;4.372;2023-03-20T15:04:37;11.70;99.90
24011;DHT22;12217;50.792;4.372;2023-03-20T15:10:04;12.20;99.90
24011;DHT22;12217;50.792;4.372;2023-03-20T15:12:34;12.40;99.90
24011;DHT22;12217;50.792;4.372;2023-03-20T15:15:04;12.30;99.90
24011;DHT22;12217;50.792;4.372;2023-03-20T15:17:44;12.10;99.90
24011;DHT22;12217;50.792;4.372;2023-03-20T15:22:59;12.00;99.90
24011;DHT22;12217;50.792;4.372;2023-03-20T15:25:52;11.90;99.90
24011;DHT22;12217;50.792;4.372;2023-03-20T15:28:25;11.90;99.90
24011;DHT22;12217;50.792;4.372;2023-03-20T15:30:55;12.00;99.90
24011;DHT22;12217;50.792;4.372;2023-03-20T15:33:34;12.00;99.90
24011;DHT22;12217;50.792;4.372;2023-03-20T15:36:07;11.90;99.90
24011;DHT22;12217;50.792;4.372;2023-03-20T15:38:34;11.80;99.90
24011;DHT22;12217;50.792;4.372;2023-03-20T15:41:04;11.70;99.90
24011;DHT22;12217;50.792;4.372;2023-03-20T15:43:29;11.60;99.90
24011;DHT22;12217;50.792;4.372;2023-03-20T15:45:57;11.60;99.90
24011;DHT22;12217;50.792;4.372;2023-03-20T15:48:23;11.60;99.90
24011;DHT22;12217;50.792;4.372;2023-03-20T15:50:59;11.70;99.90
24011;DHT22;12217;50.792;4.372;2023-03-20T15:53:36;11.80;99.90
24011;DHT22;12217;50.792;4.372;2023-03-20T15:56:14;11.80;99.90
24011;DHT22;12217;50.792;4.372;2023-03-20T15:58:42;11.90;99.90
24011;DHT22;12217;50.792;4.372;2023-03-20T16:01:14;11.90;99.90
24011;DHT22;12217;50.792;4.372;2023-03-20T16:03:41;11.90;99.90
24011;DHT22;12217;50.792;4.372;2023-03-20T16:06:10;11.70;99.90
24011;DHT22;12217;50.792;4.372;2023-03-20T16:08:36;11.60;99.90
24011;DHT22;12217;50.792;4.372;2023-03-20T16:11:12;11.50;99.90
24011;DHT22;12217;50.792;4.372;2023-03-20T16:13:41;11.50;99.90
24011;DHT22;12217;50.792;4.372;2023-03-20T16:16:13;11.60;99.90
24011;DHT22;12217;50.792;4.372;2023-03-20T16:18:39;11.70;99.90
24011;DHT22;12217;50.792;4.372;2023-03-20T16:21:08;11.80;99.90
24011;DHT22;12217;50.792;4.372;2023-03-20T16:23:39;11.80;99.90
24011;DHT22;12217;50.792;4.372;2023-03-20T16:26:07;11.90;99.90
24011;DHT22;12217;50.792;4.372;2023-03-20T16:28:37;11.80;99.90
24011;DHT22;12217;50.792;4.372;2023-03-20T16:31:16;11.70;99.90
24011;DHT22;12217;50.792;4.372;2023-03-20T16:33:42;11.70;99.90
24011;DHT22;12217;50.792;4.372;2023-03-20T16:36:15;11.70;99.90
24011;DHT22;12217;50.792;4.372;2023-03-20T16:39:15;11.60;99.90
24011;DHT22;12217;50.792;4.372;2023-03-20T16:41:43;11.70;99.90
24011;DHT22;12217;50.792;4.372;2023-03-20T16:44:17;11.80;99.90
24011;DHT22;12217;50.792;4.372;2023-03-20T16:52:22;11.80;99.90
24011;DHT22;12217;50.792;4.372;2023-03-20T16:54:49;11.70;99.90
24011;DHT22;12217;50.792;4.372;2023-03-20T16:57:17;11.70;99.90
24011;DHT22;12217;50.792;4.372;2023-03-20T16:59:43;11.70;99.90
24011;DHT22;12217;50.792;4.372;2023-03-20T17:02:20;11.60;99.90
24011;DHT22;12217;50.792;4.372;2023-03-20T17:04:48;11.70;99.90
24011;DHT22;12217;50.792;4.372;2023-03-20T17:07:17;11.70;99.90
24011;DHT22;12217;50.792;4.372;2023-03-20T17:12:32;11.70;99.90
24011;DHT22;12217;50.792;4.372;2023-03-20T17:14:58;11.60;99.90
24011;DHT22;12217;50.792;4.372;2023-03-20T17:17:24;11.50;99.90
24011;DHT22;12217;50.792;4.372;2023-03-20T17:19:50;11.50;99.90
24011;DHT22;12217;50.792;4.372;2023-03-20T17:22:22;11.50;99.90
24011;DHT22;12217;50.792;4.372;2023-03-20T17:24:49;11.30;99.90
24011;DHT22;12217;50.792;4.372;2023-03-20T17:27:15;11.30;99.90
24011;DHT22;12217;50.792;4.372;2023-03-20T17:29:43;11.40;99.90
24011;DHT22;12217;50.792;4.372;2023-03-20T17:32:17;11.40;99.90
24011;DHT22;12217;50.792;4.372;2023-03-20T17:34:43;11.40;99.90
24011;DHT22;12217;50.792;4.372;2023-03-20T17:37:15;11.40;99.90
24011;DHT22;12217;50.792;4.372;2023-03-20T17:39:41;11.40;99.90
24011;DHT22;12217;50.792;4.372;2023-03-20T17:42:26;11.40;99.90
24011;DHT22;12217;50.792;4.372;2023-03-20T17:44:56;11.50;99.90
24011;DHT22;12217;50.792;4.372;2023-03-20T17:47:24;11.60;99.90
24011;DHT22;12217;50.792;4.372;2023-03-20T17:49:51;11.50;99.90
24011;DHT22;12217;50.792;4.372;2023-03-20T17:52:20;11.70;99.90
24011;DHT22;12217;50.792;4.372;2023-03-20T17:54:46;11.70;99.90
24011;DHT22;12217;50.792;4.372;2023-03-20T17:57:30;11.70;99.90
24011;DHT22;12217;50.792;4.372;2023-03-20T17:59:56;11.60;99.90
24011;DHT22;12217;50.792;4.372;2023-03-20T18:02:21;11.60;99.90
24011;DHT22;12217;50.792;4.372;2023-03-20T18:04:48;11.60;99.90
24011;DHT22;12217;50.792;4.372;2023-03-20T18:07:15;11.60;99.90
24011;DHT22;12217;50.792;4.372;2023-03-20T18:09:42;11.70;99.90
24011;DHT22;12217;50.792;4.372;2023-03-20T18:12:13;11.70;99.90
24011;DHT22;12217;50.792;4.372;2023-03-20T18:14:39;11.70;99.90
24011;DHT22;12217;50.792;4.372;2023-03-20T18:17:05;11.60;99.90
24011;DHT22;12217;50.792;4.372;2023-03-20T18:19:31;11.60;99.90
24011;DHT22;12217;50.792;4.372;2023-03-20T18:21:58;11.60;99.90
24011;DHT22;12217;50.792;4.372;2023-03-20T18:24:25;11.60;99.90
24011;DHT22;12217;50.792;4.372;2023-03-20T18:26:52;11.60;99.90